createdAt,value
2023-05-08T00:14:18.237Z,10.90
2023-05-08T00:16:45.299Z,10.90
2023-05-08T00:21:39.973Z,10.80
2023-05-08T00:24:07.316Z,10.80
2023-05-08T00:26:34.382Z,10.80
2023-05-08T00:29:01.403Z,10.80
2023-05-08T00:31:28.508Z,10.80
2023-05-08T00:33:55.801Z,10.70
2023-05-08T00:43:45.712Z,10.50
2023-05-08T00:46:14.017Z,10.40
2023-05-08T00:48:44.002Z,10.30
2023-05-08T00:51:12.167Z,10.30
2023-05-08T00:53:45.150Z,10.20
2023-05-08T00:56:16.808Z,10.30
2023-05-08T00:58:45.552Z,10.40
2023-05-08T01:01:12.718Z,10.40
2023-05-08T01:03:41.375Z,10.50
2023-05-08T01:06:08.762Z,10.50
2023-05-08T01:08:36.028Z,10.50
2023-05-08T01:11:38.054Z,10.60
2023-05-08T01:14:21.132Z,10.60
2023-05-08T01:17:12.190Z,10.60
2023-05-08T01:20:04.208Z,10.60
2023-05-08T01:23:59.436Z,10.60
2023-05-08T01:26:31.796Z,10.60
2023-05-08T01:29:48.948Z,10.60
2023-05-08T01:32:39.288Z,10.60
2023-05-08T01:35:36.097Z,10.60
2023-05-08T01:38:43.309Z,10.70
2023-05-08T01:41:25.360Z,10.70
2023-05-08T01:44:17.372Z,10.60
2023-05-08T01:46:50.897Z,10.60
2023-05-08T01:49:34.600Z,10.60
2023-05-08T01:52:13.095Z,10.60
2023-05-08T01:54:58.988Z,10.60
2023-05-08T01:57:30.061Z,10.60
2023-05-08T02:00:03.083Z,10.60
2023-05-08T02:02:38.111Z,10.50
2023-05-08T02:05:08.765Z,10.50
2023-05-08T02:07:40.494Z,10.40
2023-05-08T02:10:10.092Z,10.40
2023-05-08T02:15:09.197Z,10.30
2023-05-08T02:17:40.681Z,10.30
2023-05-08T02:20:14.639Z,10.30
2023-05-08T02:22:50.520Z,10.30
2023-05-08T02:25:19.633Z,10.20
2023-05-08T02:27:50.960Z,10.20
2023-05-08T02:32:49.753Z,10.10
2023-05-08T02:35:19.699Z,10.10
2023-05-08T02:37:56.194Z,10.00
2023-05-08T02:40:28.381Z,10.00
2023-05-08T02:42:56.334Z,9.90
2023-05-08T02:45:38.633Z,9.90
2023-05-08T02:48:31.309Z,9.90
2023-05-08T02:51:21.485Z,9.80
2023-05-08T02:54:21.667Z,9.70
2023-05-08T02:57:09.007Z,9.70
2023-05-08T02:59:51.754Z,9.70
2023-05-08T03:02:33.782Z,9.60
2023-05-08T03:05:15.060Z,9.50
2023-05-08T03:07:45.409Z,9.50
2023-05-08T03:10:16.465Z,9.40
2023-05-08T03:12:49.914Z,9.40
2023-05-08T03:15:51.687Z,9.40
2023-05-08T03:18:24.241Z,9.30
2023-05-08T03:20:56.555Z,9.30
2023-05-08T03:23:28.172Z,9.20
2023-05-08T03:25:58.858Z,9.20
2023-05-08T03:28:27.663Z,9.20
2023-05-08T03:30:59.444Z,9.20
2023-05-08T03:33:29.189Z,9.20
2023-05-08T03:35:59.566Z,9.20
2023-05-08T03:38:27.327Z,9.10
2023-05-08T03:43:23.260Z,9.10
2023-05-08T03:45:51.664Z,9.10
2023-05-08T03:50:47.818Z,9.00
2023-05-08T03:58:31.975Z,9.00
2023-05-08T04:01:24.307Z,9.00
2023-05-08T04:04:30.471Z,9.00
2023-05-08T04:07:33.460Z,9.10
2023-05-08T04:10:13.906Z,9.10
2023-05-08T04:15:49.079Z,9.10
2023-05-08T04:18:28.861Z,9.10
2023-05-08T04:21:00.562Z,9.10
2023-05-08T04:23:30.004Z,9.20
2023-05-08T04:26:00.721Z,9.20
2023-05-08T04:28:29.599Z,9.20
2023-05-08T04:30:58.635Z,9.30
2023-05-08T04:35:54.581Z,9.30
2023-05-08T04:45:45.915Z,9.30
2023-05-08T04:58:04.068Z,9.30
2023-05-08T05:00:31.219Z,9.40
2023-05-08T05:05:27.110Z,9.40
2023-05-08T05:25:10.738Z,9.60
2023-05-08T05:30:08.471Z,9.80
2023-05-08T05:32:36.216Z,10.00
2023-05-08T05:35:03.609Z,10.00
2023-05-08T05:37:30.864Z,10.10
2023-05-08T05:54:47.118Z,10.40
2023-05-08T05:59:43.305Z,10.80
2023-05-08T06:04:41.366Z,10.80
2023-05-08T06:07:12.075Z,10.90
2023-05-08T06:12:10.293Z,11.20
2023-05-08T06:14:37.424Z,11.30
2023-05-08T06:26:55.549Z,12.00
2023-05-08T06:31:50.118Z,12.10
2023-05-08T06:36:44.601Z,12.00
2023-05-08T06:41:39.091Z,12.20
2023-05-08T06:44:06.080Z,12.40
2023-05-08T06:49:00.651Z,12.30
2023-05-08T06:53:55.179Z,12.30
2023-05-08T06:59:00.480Z,12.60
2023-05-08T07:01:32.093Z,12.60
2023-05-08T07:03:59.345Z,12.60
2023-05-08T07:11:22.153Z,12.90
2023-05-08T07:13:50.827Z,12.80
2023-05-08T07:18:45.476Z,13.00
2023-05-08T07:21:13.080Z,13.10
2023-05-08T07:23:40.127Z,13.20
2023-05-08T07:26:08.120Z,13.40
2023-05-08T07:28:35.244Z,13.50
2023-05-08T07:31:08.405Z,13.60
2023-05-08T07:33:35.484Z,13.60
2023-05-08T07:38:30.080Z,14.00
2023-05-08T07:40:57.824Z,14.00
2023-05-08T07:43:25.059Z,14.00
2023-05-08T07:45:52.209Z,14.20
2023-05-08T07:48:19.813Z,14.50
2023-05-08T07:50:46.920Z,14.80
2023-05-08T07:53:13.984Z,15.00
2023-05-08T07:55:41.033Z,15.10
2023-05-08T08:11:09.854Z,16.80
2023-05-08T08:13:36.897Z,16.80
2023-05-08T08:16:04.363Z,16.80
2023-05-08T08:18:38.350Z,16.70
2023-05-08T08:21:08.616Z,16.80
2023-05-08T08:23:35.895Z,16.40
2023-05-08T08:28:30.397Z,16.20
2023-05-08T08:30:57.436Z,16.30
2023-05-08T08:35:52.004Z,16.40
2023-05-08T08:40:46.631Z,16.50
2023-05-08T08:45:41.346Z,16.50
2023-05-08T08:48:12.530Z,16.70
2023-05-08T08:50:47.462Z,16.70
2023-05-08T08:53:27.560Z,17.10
2023-05-08T08:55:58.623Z,17.20
2023-05-08T08:58:49.699Z,17.10
2023-05-08T09:01:20.705Z,17.10
2023-05-08T09:06:18.442Z,17.60
2023-05-08T09:11:13.500Z,17.50
2023-05-08T09:13:40.844Z,17.70
2023-05-08T09:18:36.253Z,17.40
2023-05-08T09:21:06.686Z,17.70
2023-05-08T09:23:36.681Z,18.50
2023-05-08T09:26:03.908Z,18.70
2023-05-08T09:28:30.914Z,18.00
2023-05-08T09:31:00.051Z,18.10
2023-05-08T09:33:29.930Z,18.90
2023-05-08T09:35:58.085Z,18.60
2023-05-08T09:38:43.485Z,18.90
2023-05-08T09:41:16.256Z,18.90
2023-05-08T09:43:45.906Z,18.00
2023-05-08T09:46:25.717Z,17.70
2023-05-08T09:48:59.915Z,17.90
2023-05-08T09:51:32.190Z,18.10
2023-05-08T09:54:00.470Z,18.50
2023-05-08T09:56:36.356Z,18.50
2023-05-08T09:59:06.565Z,17.70
2023-05-08T10:01:37.373Z,17.80
2023-05-08T10:04:06.074Z,18.00
2023-05-08T10:09:15.108Z,17.70
2023-05-08T10:11:55.264Z,17.90
2023-05-08T10:14:24.315Z,17.70
2023-05-08T10:16:54.582Z,17.40
2023-05-08T10:19:28.280Z,17.40
2023-05-08T10:21:58.101Z,17.30
2023-05-08T10:24:33.634Z,17.50
2023-05-08T10:27:19.913Z,17.60
2023-05-08T10:29:55.868Z,17.70
2023-05-08T10:32:24.932Z,17.60
2023-05-08T10:35:00.627Z,17.70
2023-05-08T10:37:31.155Z,17.40
2023-05-08T10:42:28.772Z,17.50
2023-05-08T10:44:56.491Z,18.00
2023-05-08T10:47:58.039Z,18.00
2023-05-08T10:51:06.282Z,18.10
2023-05-08T10:53:59.101Z,18.00
2023-05-08T10:56:28.633Z,18.20
2023-05-08T10:58:59.670Z,18.30
2023-05-08T11:01:27.434Z,18.40
2023-05-08T11:03:57.853Z,18.40
2023-05-08T11:06:45.567Z,17.70
2023-05-08T11:09:29.249Z,17.70
2023-05-08T11:12:21.221Z,17.80
2023-05-08T11:15:09.617Z,18.20
2023-05-08T11:17:36.754Z,18.20
2023-05-08T11:20:06.829Z,18.20
2023-05-08T11:22:36.841Z,18.60
2023-05-08T11:25:10.895Z,18.60
2023-05-08T11:27:50.193Z,17.90
2023-05-08T11:30:36.336Z,17.70
2023-05-08T11:33:06.759Z,17.70
2023-05-08T11:35:52.763Z,18.00
2023-05-08T11:41:25.300Z,18.50
2023-05-08T11:44:01.677Z,18.40
2023-05-08T11:46:53.940Z,18.00
2023-05-08T11:49:28.987Z,18.10
2023-05-08T11:51:59.730Z,18.30
2023-05-08T11:54:31.124Z,18.70
2023-05-08T11:56:59.452Z,18.50
2023-05-08T12:02:06.784Z,18.30
2023-05-08T12:04:47.271Z,18.30
2023-05-08T12:07:15.826Z,18.50
2023-05-08T12:12:10.441Z,18.30
2023-05-08T12:19:32.377Z,18.50
2023-05-08T12:26:58.599Z,18.50
2023-05-08T12:31:53.736Z,18.50
2023-05-08T12:34:21.502Z,18.40
2023-05-08T12:36:48.550Z,18.60
2023-05-08T12:39:18.839Z,18.60
2023-05-08T12:41:50.394Z,18.60
2023-05-08T12:44:25.925Z,18.30
2023-05-08T12:46:57.267Z,18.00
2023-05-08T12:49:32.550Z,17.70
2023-05-08T12:52:13.366Z,17.60
2023-05-08T12:54:48.255Z,17.70
2023-05-08T12:57:18.795Z,17.90
2023-05-08T12:59:46.780Z,18.10
2023-05-08T13:02:23.740Z,18.50
2023-05-08T13:04:58.203Z,18.80
2023-05-08T13:07:32.090Z,18.20
2023-05-08T13:10:04.642Z,18.30
2023-05-08T13:12:32.436Z,18.30
2023-05-08T13:14:59.450Z,18.50
2023-05-08T13:17:27.575Z,18.30
2023-05-08T13:22:26.351Z,18.30
2023-05-08T13:24:53.463Z,18.50
2023-05-08T13:27:20.503Z,18.50
2023-05-08T13:29:47.594Z,18.50
2023-05-08T13:32:15.005Z,18.60
2023-05-08T13:34:49.770Z,18.20
2023-05-08T13:39:46.108Z,18.70
2023-05-08T13:42:15.122Z,18.40
2023-05-08T13:44:43.602Z,18.90
2023-05-08T13:49:38.189Z,18.90
2023-05-08T13:52:05.560Z,18.60
2023-05-08T13:54:32.521Z,18.40
2023-05-08T13:56:59.593Z,18.90
2023-05-08T14:01:54.513Z,18.70
2023-05-08T14:04:21.727Z,18.90
2023-05-08T14:06:50.330Z,19.50
2023-05-08T14:09:17.559Z,19.60
2023-05-08T14:14:12.074Z,19.50
2023-05-08T14:16:39.139Z,19.20
2023-05-08T14:19:06.305Z,19.00
2023-05-08T14:21:34.658Z,18.50
2023-05-08T14:24:01.724Z,18.80
2023-05-08T14:28:56.318Z,19.30
2023-05-08T14:31:23.398Z,19.70
2023-05-08T14:36:18.021Z,19.20
2023-05-08T14:38:45.016Z,19.40
2023-05-08T14:41:12.157Z,19.50
2023-05-08T14:46:06.729Z,18.80
2023-05-08T14:48:33.726Z,19.00
2023-05-08T14:51:00.746Z,18.70
2023-05-08T14:53:27.911Z,18.60
2023-05-08T14:55:55.357Z,18.30
2023-05-08T14:58:22.704Z,18.60
2023-05-08T15:03:17.398Z,18.50
2023-05-08T15:05:44.606Z,18.50
2023-05-08T15:08:11.624Z,18.50
2023-05-08T15:10:38.590Z,18.20
2023-05-08T15:13:05.768Z,18.40
2023-05-08T15:15:32.860Z,18.20
2023-05-08T15:17:59.970Z,18.00
2023-05-08T15:20:27.008Z,18.00
2023-05-08T15:25:21.690Z,18.10
2023-05-08T15:27:52.486Z,18.20
2023-05-08T15:30:20.690Z,18.20
2023-05-08T15:35:16.025Z,18.00
2023-05-08T15:37:43.150Z,17.70
2023-05-08T15:40:11.082Z,17.60
2023-05-08T15:42:38.010Z,17.60
2023-05-08T15:47:33.238Z,17.60
2023-05-08T15:50:00.460Z,17.40
2023-05-08T15:52:27.684Z,17.40
2023-05-08T15:54:54.646Z,17.40
2023-05-08T15:57:21.650Z,17.50
2023-05-08T15:59:48.623Z,17.50
2023-05-08T16:02:16.020Z,17.30
2023-05-08T16:04:43.187Z,17.30
2023-05-08T16:07:14.747Z,17.40
2023-05-08T16:12:09.294Z,17.30
2023-05-08T16:14:36.415Z,17.30
2023-05-08T16:17:04.309Z,17.30
2023-05-08T16:19:31.275Z,17.20
2023-05-08T16:21:58.384Z,17.10
2023-05-08T16:24:25.410Z,17.00
2023-05-08T16:26:52.463Z,17.00
2023-05-08T16:36:42.150Z,16.70
2023-05-08T16:39:09.155Z,16.70
2023-05-08T16:44:03.843Z,16.60
2023-05-08T16:48:58.383Z,16.50
2023-05-08T16:51:25.531Z,16.50
2023-05-08T16:58:49.515Z,16.30
2023-05-08T17:03:44.072Z,16.20
2023-05-08T17:11:06.218Z,16.10
2023-05-08T17:18:29.389Z,15.90
2023-05-08T17:20:56.386Z,15.80
2023-05-08T17:23:23.521Z,15.80
2023-05-08T17:26:00.197Z,15.70
2023-05-08T17:28:27.386Z,15.70
2023-05-08T17:30:54.964Z,15.60
2023-05-08T17:38:17.031Z,15.50
2023-05-08T17:43:12.044Z,15.30
2023-05-08T17:45:39.723Z,15.30
2023-05-08T17:48:07.014Z,15.30
2023-05-08T17:50:35.083Z,15.30
2023-05-08T17:53:02.091Z,15.30
2023-05-08T17:57:58.762Z,15.10
2023-05-08T18:02:53.484Z,15.00
2023-05-08T18:05:20.813Z,15.00
2023-05-08T18:07:47.863Z,15.00
2023-05-08T18:12:42.683Z,14.90
2023-05-08T18:15:10.938Z,14.80
2023-05-08T18:17:38.031Z,14.80
2023-05-08T18:20:07.744Z,14.70
2023-05-08T18:22:35.606Z,14.70
2023-05-08T18:25:03.474Z,14.60
2023-05-08T18:27:33.275Z,14.60
2023-05-08T18:32:28.934Z,14.50
2023-05-08T18:34:56.768Z,14.40
2023-05-08T18:42:18.881Z,14.20
2023-05-08T18:47:13.463Z,14.00
2023-05-08T19:04:26.132Z,13.90
2023-05-08T19:11:48.272Z,13.70
2023-05-08T19:14:15.797Z,13.70
2023-05-08T19:19:10.270Z,13.60
2023-05-08T19:26:32.738Z,13.50
2023-05-08T19:28:59.794Z,13.50
2023-05-08T19:38:49.582Z,13.50
2023-05-08T19:41:17.720Z,13.50
2023-05-08T19:46:12.461Z,13.50
2023-05-08T19:48:39.720Z,13.40
2023-05-08T19:51:11.406Z,13.40
2023-05-08T19:56:06.785Z,13.30
2023-05-08T19:58:34.025Z,13.20
2023-05-08T20:01:03.353Z,13.20
2023-05-08T20:03:30.616Z,13.10
2023-05-08T20:05:57.783Z,13.10
2023-05-08T20:08:24.824Z,13.10
2023-05-08T20:13:19.636Z,13.00
2023-05-08T20:18:14.512Z,13.00
2023-05-08T20:23:09.261Z,12.80
2023-05-08T20:25:36.370Z,12.70
2023-05-08T20:30:31.106Z,12.60
2023-05-08T20:33:04.461Z,12.60
2023-05-08T20:35:32.852Z,12.70
2023-05-08T20:37:59.878Z,12.70
2023-05-08T20:40:27.029Z,12.70
2023-05-08T20:42:53.999Z,12.70
2023-05-08T20:45:21.254Z,12.70
2023-05-08T20:47:48.279Z,12.80
2023-05-08T20:55:11.516Z,12.70
2023-05-08T21:00:08.172Z,12.60
2023-05-08T21:02:38.355Z,12.60
2023-05-08T21:05:07.264Z,12.60
2023-05-08T21:07:34.976Z,12.50
2023-05-08T21:12:30.644Z,12.50
2023-05-08T21:14:57.728Z,12.50
2023-05-08T21:17:24.800Z,12.60
2023-05-08T21:19:51.835Z,12.60
2023-05-08T21:22:19.315Z,12.70
2023-05-08T21:27:13.846Z,12.60
2023-05-08T21:29:40.973Z,12.60
2023-05-08T21:34:37.627Z,12.50
2023-05-08T21:49:22.005Z,12.30
2023-05-08T22:21:20.768Z,12.30
2023-05-08T22:33:39.411Z,12.40
2023-05-08T22:43:31.895Z,12.60
2023-05-08T22:50:55.788Z,12.40
2023-05-08T22:55:50.350Z,12.30
2023-05-08T23:00:44.754Z,12.40
2023-05-08T23:03:12.944Z,12.40
2023-05-08T23:10:34.753Z,12.40
2023-05-08T23:17:57.054Z,12.30
2023-05-08T23:25:19.149Z,12.40
2023-05-08T23:30:16.741Z,12.40
2023-05-08T23:32:44.683Z,12.30
2023-05-08T23:40:08.658Z,12.30
2023-05-08T23:45:04.721Z,12.20
2023-05-08T23:47:32.064Z,12.30
2023-05-08T23:54:54.157Z,12.20
2023-05-08T23:57:21.198Z,12.20
2023-05-08T23:59:48.167Z,12.20
